August Explorer — 7JWP — position and weather

sailwx.info

Track history (hours):
 
Tides and Currents Weather Stations Pressure Air Temp Water Temp Dewpoint Dewpoint Depression Visibility Wind Speed Wind Dir Waves Ship Positions

August Explorer

Last reported at 2018-Feb-13 01:17 UTC. Time now 2018-Feb-23 00:57 UTC.
Position N 35°27' E 139°57'.
Warning: this ship's position is 9 days out of date.

Length 90 m; draft 3.1 m.

Type: Other ship. MMSI: 431370000.

Date/timePositionNaut miles runAvg speedWind from/ knotsBaromVisibWave heightAir tempDewpointWater temp
2018-Feb-13 01:17N 35°27' E 139°57'1 2.3
2018-Feb-13 01:00N 35°27' E 139°58'3 5.3
2018-Feb-13 00:30N 35°30' E 139°57'2 4.7
2018-Feb-13 00:00N 35°28' E 139°54'1 1.7
2018-Feb-12 23:30N 35°28' E 139°55'2 4.8
2018-Feb-12 23:00N 35°27' E 139°58'0 0.8
2018-Feb-12 22:30N 35°27' E 139°57'  
2018-Feb-09 09:00N 35°27' E 139°57'2 3.8
2018-Feb-09 08:30N 35°29' E 139°56'2 1.5
2018-Feb-09 07:30N 35°28' E 139°55'3 5.8
2018-Feb-09 07:00N 35°30' E 139°57'3 6.4
2018-Feb-09 06:30N 35°27' E 139°57'0 0.0
2018-Feb-07 02:51N 35°27' E 139°57'0 1.0
2018-Feb-07 02:30N 35°27' E 139°58'2 4.0
2018-Feb-07 02:00N 35°29' E 139°56'0 0.6
2018-Feb-07 01:30N 35°28' E 139°56'2 1.1
2018-Feb-07 00:00N 35°27' E 139°57'0 0.1
2018-Feb-06 23:30N 35°27' E 139°57'0 0.0
2018-Feb-06 22:58N 35°27' E 139°57'0 0.0
2018-Feb-06 22:28N 35°27' E 139°57'0 0.0
2018-Feb-06 21:55N 35°27' E 139°57'  
Track history (hours):
 
Tides and Currents Weather Stations Pressure Air Temp Water Temp Dewpoint Dewpoint Depression Visibility Wind Speed Wind Dir Waves Ship Positions

August Explorer

Last reported at 2018-Feb-13 01:17 UTC. Time now 2018-Feb-23 00:57 UTC.
Position N 35°27' E 139°57'.
Warning: this ship's position is 9 days out of date.

Length 90 m; draft 3.1 m.

Type: Other ship. MMSI: 431370000.

Date/timePositionNaut miles runAvg speedWind from/ knotsBaromVisibWave heightAir tempDewpointWater temp
2018-Feb-13 01:17N 35°27' E 139°57'1 2.3
2018-Feb-13 01:00N 35°27' E 139°58'3 5.3
2018-Feb-13 00:30N 35°30' E 139°57'2 4.7
2018-Feb-13 00:00N 35°28' E 139°54'1 1.7
2018-Feb-12 23:30N 35°28' E 139°55'2 4.8
2018-Feb-12 23:00N 35°27' E 139°58'0 0.8
2018-Feb-12 22:30N 35°27' E 139°57'  
2018-Feb-09 09:00N 35°27' E 139°57'2 3.8
2018-Feb-09 08:30N 35°29' E 139°56'2 1.5
2018-Feb-09 07:30N 35°28' E 139°55'3 5.8
2018-Feb-09 07:00N 35°30' E 139°57'3 6.4
2018-Feb-09 06:30N 35°27' E 139°57'0 0.0
2018-Feb-07 02:51N 35°27' E 139°57'0 1.0
2018-Feb-07 02:30N 35°27' E 139°58'2 4.0
2018-Feb-07 02:00N 35°29' E 139°56'0 0.6
2018-Feb-07 01:30N 35°28' E 139°56'2 1.1
2018-Feb-07 00:00N 35°27' E 139°57'0 0.1
2018-Feb-06 23:30N 35°27' E 139°57'0 0.0
2018-Feb-06 22:58N 35°27' E 139°57'0 0.0
2018-Feb-06 22:28N 35°27' E 139°57'0 0.0
2018-Feb-06 21:55N 35°27' E 139°57'  

Dump ship's entire track history